Time;durP1;ratioP1;P1;durP2;ratioP2;P2;SDS_P1;SDS_P2;PMS_P1;PMS_P2;Temp;Humidity;BMP_temperature;BMP_pressure;BME280_temperature;BME280_humidity;BME280_pressure;Samples;Min_cycle;Max_cycle;Signal;HPM_P1;HPM_P2
2021/12/29 00:01:51;;;;;;;26.07;5.77;;;;;;;;;;5052606;28;20669;-68
2021/12/29 00:04:16;;;;;;;21.03;6.00;;;;;;;;;;5055001;28;20181;-68
2021/12/29 00:06:42;;;;;;;19.23;6.20;;;;;;;;;;5047882;28;21004;-68
2021/12/29 00:09:07;;;;;;;21.07;5.30;;;;;;;;;;5036433;28;20211;-68
2021/12/29 00:11:37;;;;;;;26.13;7.33;;;;;;;;;;5016116;28;20180;-69
2021/12/29 00:14:02;;;;;;;18.70;6.00;;;;;;;;;;5031789;28;20176;-69
2021/12/29 00:16:29;;;;;;;18.23;5.57;;;;;;;;;;5034312;28;20259;-69
2021/12/29 00:18:54;;;;;;;19.17;5.50;;;;;;;;;;5040662;28;20885;-69
2021/12/29 00:21:19;;;;;;;17.63;5.70;;;;;;;;;;5040060;28;20313;-69
2021/12/29 00:23:44;;;;;;;24.87;6.77;;;;;;;;;;5037533;28;20192;-69
2021/12/29 00:26:11;;;;;;;20.83;6.93;;;;;;;;;;5044093;28;20547;-69
2021/12/29 00:28:36;;;;;;;19.57;6.60;;;;;;;;;;5048931;28;20196;-69
2021/12/29 00:31:01;;;;;;;18.50;6.57;;;;;;;;;;5060395;28;20185;-69
2021/12/29 00:33:27;;;;;;;22.70;7.83;;;;;;;;;;5063560;28;20177;-69
2021/12/29 00:35:52;;;;;;;20.70;6.77;;;;;;;;;;5061643;28;20183;-69
2021/12/29 00:38:17;;;;;;;17.53;6.30;;;;;;;;;;5050862;28;20197;-69
2021/12/29 00:40:42;;;;;;;18.13;7.53;;;;;;;;;;5056601;28;20197;-69
2021/12/29 00:43:08;;;;;;;15.33;5.23;;;;;;;;;;5057151;28;20715;-69
2021/12/29 00:45:37;;;;;;;15.77;6.20;;;;;;;;;;5057219;28;20182;-69
2021/12/29 00:48:04;;;;;;;18.57;6.00;;;;;;;;;;5054137;28;20271;-69
2021/12/29 00:50:29;;;;;;;13.67;5.33;;;;;;;;;;5052201;28;20192;-69
2021/12/29 00:52:55;;;;;;;16.40;5.87;;;;;;;;;;5053030;28;20598;-69
2021/12/29 00:55:20;;;;;;;13.07;5.53;;;;;;;;;;5046956;28;20678;-69
2021/12/29 00:57:45;;;;;;;18.10;7.50;;;;;;;;;;5034799;28;20216;-69
2021/12/29 01:00:15;;;;;;;11.63;5.17;;;;;;;;;;5045531;28;20619;-69
2021/12/29 01:02:41;;;;;;;20.03;6.23;;;;;;;;;;5038250;28;20288;-69
2021/12/29 01:05:08;;;;;;;16.00;5.97;;;;;;;;;;5036484;28;20186;-69
2021/12/29 01:07:33;;;;;;;15.10;5.97;;;;;;;;;;5037752;28;20197;-70
2021/12/29 01:09:59;;;;;;;18.50;6.10;;;;;;;;;;5037932;28;20185;-69
2021/12/29 01:12:25;;;;;;;11.47;5.23;;;;;;;;;;5038639;28;20657;-69
2021/12/29 01:14:54;;;;;;;25.97;8.77;;;;;;;;;;5036850;28;20507;-69
2021/12/29 01:17:20;;;;;;;14.43;5.67;;;;;;;;;;5042224;28;20204;-70
2021/12/29 01:19:46;;;;;;;16.07;6.00;;;;;;;;;;5044238;28;20184;-69
2021/12/29 01:22:11;;;;;;;13.03;5.23;;;;;;;;;;5031729;28;20603;-69
2021/12/29 01:24:37;;;;;;;13.30;6.10;;;;;;;;;;5032853;28;20416;-70
2021/12/29 01:27:02;;;;;;;18.10;6.23;;;;;;;;;;5039547;28;20247;-69
2021/12/29 01:29:28;;;;;;;20.03;4.83;;;;;;;;;;5030653;28;20291;-68
2021/12/29 01:31:54;;;;;;;19.13;5.23;;;;;;;;;;5026371;28;20264;-69
2021/12/29 01:34:19;;;;;;;15.33;5.20;;;;;;;;;;5035548;28;20836;-69
2021/12/29 01:36:44;;;;;;;13.17;4.57;;;;;;;;;;5037310;28;20201;-69
2021/12/29 01:39:12;;;;;;;23.07;6.77;;;;;;;;;;5034312;28;20228;-68
2021/12/29 01:41:37;;;;;;;15.40;5.80;;;;;;;;;;5035904;28;20456;-69
2021/12/29 01:44:03;;;;;;;13.20;4.33;;;;;;;;;;5033073;28;20186;-69
2021/12/29 01:46:28;;;;;;;19.53;4.30;;;;;;;;;;5035475;28;20173;-69
2021/12/29 01:48:54;;;;;;;14.83;4.10;;;;;;;;;;5039347;28;20670;-68
2021/12/29 01:51:20;;;;;;;11.97;3.83;;;;;;;;;;5036866;28;20304;-68
2021/12/29 01:54:02;;;;;;;10.47;4.33;;;;;;;;;;5025402;28;20196;-68
2021/12/29 01:56:28;;;;;;;11.47;4.33;;;;;;;;;;5035401;28;20184;-69
2021/12/29 01:58:53;;;;;;;16.13;4.10;;;;;;;;;;5030856;28;20208;-68
2021/12/29 02:01:18;;;;;;;10.63;3.50;;;;;;;;;;5035783;28;20297;-68
2021/12/29 02:03:43;;;;;;;9.37;3.60;;;;;;;;;;5035530;28;20268;-68
2021/12/29 02:06:09;;;;;;;12.20;4.37;;;;;;;;;;5047780;28;20181;-69
2021/12/29 02:08:35;;;;;;;14.30;4.30;;;;;;;;;;5039615;28;20289;-68
2021/12/29 02:11:00;;;;;;;11.20;4.20;;;;;;;;;;5019819;28;20181;-68
2021/12/29 02:13:25;;;;;;;11.23;3.73;;;;;;;;;;5032887;28;20200;-68
2021/12/29 02:15:50;;;;;;;13.90;4.83;;;;;;;;;;5035529;28;20180;-68
2021/12/29 02:18:18;;;;;;;11.47;5.17;;;;;;;;;;5036753;28;20615;-68
2021/12/29 02:20:47;;;;;;;7.63;3.70;;;;;;;;;;5036219;28;20220;-69
2021/12/29 02:23:20;;;;;;;11.57;3.83;;;;;;;;;;5025417;28;20543;-68
2021/12/29 02:25:53;;;;;;;10.57;3.73;;;;;;;;;;5017230;28;20180;-68
2021/12/29 02:28:22;;;;;;;11.77;3.67;;;;;;;;;;5033328;28;20230;-68
2021/12/29 02:30:48;;;;;;;9.90;3.67;;;;;;;;;;5033157;28;20198;-69
2021/12/29 02:33:14;;;;;;;14.07;4.37;;;;;;;;;;5032712;28;20200;-69
2021/12/29 02:35:41;;;;;;;5.77;3.50;;;;;;;;;;5033530;28;20217;-68
2021/12/29 02:38:10;;;;;;;9.90;4.00;;;;;;;;;;5015710;28;20673;-68
2021/12/29 02:40:36;;;;;;;9.47;3.53;;;;;;;;;;5032952;28;20796;-68
2021/12/29 02:43:01;;;;;;;9.53;3.33;;;;;;;;;;5016078;28;20618;-68
2021/12/29 02:45:27;;;;;;;16.27;3.90;;;;;;;;;;5036362;28;20182;-69
2021/12/29 02:47:52;;;;;;;11.13;3.70;;;;;;;;;;5036422;28;20330;-69
2021/12/29 02:50:18;;;;;;;10.43;3.87;;;;;;;;;;5034963;28;20190;-68
2021/12/29 02:52:44;;;;;;;10.90;3.67;;;;;;;;;;5034090;28;20271;-68
2021/12/29 02:55:12;;;;;;;7.57;3.23;;;;;;;;;;5036787;28;20704;-69
2021/12/29 02:57:37;;;;;;;6.17;3.03;;;;;;;;;;5031286;28;20201;-69
2021/12/29 03:00:03;;;;;;;11.43;3.60;;;;;;;;;;5035901;28;20371;-69
2021/12/29 03:02:28;;;;;;;11.73;3.73;;;;;;;;;;5032320;28;20602;-69
2021/12/29 03:04:56;;;;;;;14.20;4.07;;;;;;;;;;5038990;28;20669;-69
2021/12/29 03:07:22;;;;;;;6.27;3.47;;;;;;;;;;5032795;28;20604;-68
2021/12/29 03:09:47;;;;;;;10.63;4.97;;;;;;;;;;5018046;28;20173;-68
2021/12/29 03:12:12;;;;;;;8.93;3.47;;;;;;;;;;5033776;28;20188;-68
2021/12/29 03:14:37;;;;;;;6.23;3.23;;;;;;;;;;5032761;28;21910;-69
2021/12/29 03:17:02;;;;;;;6.27;3.90;;;;;;;;;;5033849;28;20200;-69
2021/12/29 03:19:27;;;;;;;7.80;3.73;;;;;;;;;;5035227;28;20205;-68
2021/12/29 03:21:53;;;;;;;8.07;4.03;;;;;;;;;;5032831;28;20209;-69
2021/12/29 03:24:20;;;;;;;6.40;4.30;;;;;;;;;;5032216;28;20313;-68
2021/12/29 03:26:46;;;;;;;9.83;3.87;;;;;;;;;;5035020;28;20201;-69
2021/12/29 03:29:11;;;;;;;8.47;4.13;;;;;;;;;;5015323;28;20254;-68
2021/12/29 03:31:38;;;;;;;7.63;3.53;;;;;;;;;;5033664;28;21451;-68
2021/12/29 03:34:04;;;;;;;8.20;3.93;;;;;;;;;;5033508;28;20190;-69
2021/12/29 03:36:29;;;;;;;7.27;4.10;;;;;;;;;;5032464;28;20217;-69
2021/12/29 03:38:55;;;;;;;12.43;4.47;;;;;;;;;;5031157;28;20697;-68
2021/12/29 03:41:23;;;;;;;6.93;3.97;;;;;;;;;;5032517;28;20220;-70
2021/12/29 03:43:49;;;;;;;13.77;5.30;;;;;;;;;;5032400;28;20178;-68
2021/12/29 03:46:14;;;;;;;6.73;4.50;;;;;;;;;;5032429;28;20182;-69
2021/12/29 03:48:41;;;;;;;7.00;4.40;;;;;;;;;;5017067;28;20292;-68
2021/12/29 03:51:07;;;;;;;15.23;5.53;;;;;;;;;;5033235;28;20666;-68
2021/12/29 03:53:32;;;;;;;10.53;5.40;;;;;;;;;;5035341;28;20189;-69
2021/12/29 03:55:58;;;;;;;15.27;5.43;;;;;;;;;;5016518;28;20193;-69
2021/12/29 03:58:24;;;;;;;11.57;5.03;;;;;;;;;;5032739;28;20905;-68
2021/12/29 04:00:50;;;;;;;13.30;5.80;;;;;;;;;;5032177;28;20569;-68
2021/12/29 04:03:15;;;;;;;11.73;6.33;;;;;;;;;;5036640;28;20186;-68
2021/12/29 04:05:41;;;;;;;15.80;6.97;;;;;;;;;;5036234;28;20221;-69
2021/12/29 04:08:06;;;;;;;12.57;5.67;;;;;;;;;;5033267;28;20205;-68
2021/12/29 04:10:31;;;;;;;10.37;5.60;;;;;;;;;;5051454;28;20185;-68
2021/12/29 04:12:57;;;;;;;12.80;6.20;;;;;;;;;;5034978;28;20185;-68
2021/12/29 04:15:25;;;;;;;9.23;5.80;;;;;;;;;;5033528;28;20186;-68
2021/12/29 04:17:51;;;;;;;12.03;6.20;;;;;;;;;;5033580;28;20273;-67
2021/12/29 04:23:04;;;;;;;10.03;5.83;;;;;;;;;;5032361;28;20196;-68
2021/12/29 04:25:34;;;;;;;8.23;5.30;;;;;;;;;;5032618;28;20768;-68
2021/12/29 04:28:00;;;;;;;8.73;5.10;;;;;;;;;;5031678;28;20213;-67
2021/12/29 04:30:26;;;;;;;11.93;4.80;;;;;;;;;;5033489;28;20212;-68
2021/12/29 04:32:52;;;;;;;7.70;4.50;;;;;;;;;;5031870;28;20198;-67
2021/12/29 04:35:19;;;;;;;9.03;5.07;;;;;;;;;;5030738;28;20177;-68
2021/12/29 04:37:44;;;;;;;8.30;4.60;;;;;;;;;;5015546;28;20224;-68
2021/12/29 04:40:09;;;;;;;9.03;4.37;;;;;;;;;;5012652;28;20206;-69
2021/12/29 04:42:34;;;;;;;8.40;4.57;;;;;;;;;;5030532;28;20193;-68
2021/12/29 04:44:59;;;;;;;10.43;5.03;;;;;;;;;;5032692;28;20383;-68
2021/12/29 04:47:29;;;;;;;9.47;5.43;;;;;;;;;;5031524;28;20208;-67
2021/12/29 04:49:55;;;;;;;9.43;4.80;;;;;;;;;;5032688;28;20182;-69
2021/12/29 04:52:20;;;;;;;14.37;5.00;;;;;;;;;;5024772;28;21534;-68
2021/12/29 04:54:45;;;;;;;9.63;4.53;;;;;;;;;;5047144;28;20180;-68
2021/12/29 04:57:11;;;;;;;11.17;4.47;;;;;;;;;;5034792;28;20916;-68
2021/12/29 04:59:36;;;;;;;12.00;5.03;;;;;;;;;;5034132;28;20186;-69
2021/12/29 05:02:01;;;;;;;11.03;4.53;;;;;;;;;;5017356;28;20211;-69
2021/12/29 05:04:32;;;;;;;11.03;4.00;;;;;;;;;;5038385;28;20232;-68
2021/12/29 05:09:42;;;;;;;10.57;4.20;;;;;;;;;;5036955;28;20200;-68
2021/12/29 05:12:07;;;;;;;14.83;4.10;;;;;;;;;;5035187;28;20175;-68
2021/12/29 05:14:33;;;;;;;13.13;4.47;;;;;;;;;;5036228;28;20191;-68
2021/12/29 05:16:58;;;;;;;11.37;5.93;;;;;;;;;;5018230;28;20268;-68
2021/12/29 05:19:24;;;;;;;12.90;5.23;;;;;;;;;;5041920;28;20658;-69
2021/12/29 05:21:49;;;;;;;17.57;5.33;;;;;;;;;;5038609;28;20271;-68
2021/12/29 05:24:14;;;;;;;16.43;4.70;;;;;;;;;;5034152;28;20184;-67
2021/12/29 05:26:40;;;;;;;16.13;6.13;;;;;;;;;;5035711;28;20654;-69
2021/12/29 05:29:05;;;;;;;21.43;6.13;;;;;;;;;;5035614;28;20281;-68
2021/12/29 05:31:30;;;;;;;18.23;6.77;;;;;;;;;;5034618;28;20724;-68
2021/12/29 05:33:57;;;;;;;12.90;5.97;;;;;;;;;;5034832;28;20181;-67
2021/12/29 05:36:22;;;;;;;14.03;5.80;;;;;;;;;;5033905;28;20260;-68
2021/12/29 05:38:47;;;;;;;17.33;6.40;;;;;;;;;;5036899;28;20203;-68
2021/12/29 05:41:13;;;;;;;14.73;6.30;;;;;;;;;;5033067;28;20213;-69
2021/12/29 05:43:38;;;;;;;14.53;7.13;;;;;;;;;;5035647;28;20180;-71
2021/12/29 05:46:03;;;;;;;14.80;6.10;;;;;;;;;;5019961;28;20178;-69
2021/12/29 05:48:28;;;;;;;15.50;6.77;;;;;;;;;;5038311;28;20351;-68
2021/12/29 05:50:54;;;;;;;17.47;7.10;;;;;;;;;;5039634;28;20249;-69
2021/12/29 05:53:19;;;;;;;14.93;6.73;;;;;;;;;;5036864;28;20182;-68
2021/12/29 05:55:44;;;;;;;15.40;7.00;;;;;;;;;;5036301;28;20219;-69
2021/12/29 05:58:10;;;;;;;16.27;7.20;;;;;;;;;;5045555;22;20324;-70
2021/12/29 06:00:37;;;;;;;17.30;7.40;;;;;;;;;;5031782;28;20213;-70
2021/12/29 06:03:02;;;;;;;13.63;6.83;;;;;;;;;;5012918;28;20227;-71
2021/12/29 06:05:28;;;;;;;18.43;7.10;;;;;;;;;;5031182;28;20576;-71
2021/12/29 06:07:54;;;;;;;17.53;6.70;;;;;;;;;;5025455;28;22294;-71
2021/12/29 06:10:19;;;;;;;22.80;9.37;;;;;;;;;;5014073;28;20649;-71
2021/12/29 06:12:44;;;;;;;14.00;6.57;;;;;;;;;;5013710;28;21121;-71
2021/12/29 06:15:10;;;;;;;14.27;6.67;;;;;;;;;;5017101;28;20194;-71
2021/12/29 06:17:35;;;;;;;20.13;7.97;;;;;;;;;;5018534;28;20183;-71
2021/12/29 06:20:01;;;;;;;12.87;7.20;;;;;;;;;;5016191;28;20179;-71
2021/12/29 06:22:26;;;;;;;16.63;7.47;;;;;;;;;;5015745;28;20200;-71
2021/12/29 06:24:52;;;;;;;16.27;7.03;;;;;;;;;;5014875;28;20273;-71
2021/12/29 06:27:21;;;;;;;9.73;7.23;;;;;;;;;;5015712;28;20177;-71
2021/12/29 06:29:46;;;;;;;16.97;7.07;;;;;;;;;;5015133;28;20206;-71
2021/12/29 06:32:12;;;;;;;16.47;9.13;;;;;;;;;;5016032;28;20189;-70
2021/12/29 06:34:37;;;;;;;11.93;7.90;;;;;;;;;;5012334;28;20669;-70
2021/12/29 06:37:08;;;;;;;12.17;6.50;;;;;;;;;;5015443;28;20190;-71
2021/12/29 06:39:33;;;;;;;17.20;7.83;;;;;;;;;;5015062;28;22008;-71
2021/12/29 06:41:58;;;;;;;13.87;7.00;;;;;;;;;;5014194;28;20631;-71
2021/12/29 06:44:23;;;;;;;13.27;7.40;;;;;;;;;;5015038;28;20184;-71
2021/12/29 06:46:49;;;;;;;16.83;7.03;;;;;;;;;;5015240;28;20273;-71
2021/12/29 06:49:14;;;;;;;15.07;6.43;;;;;;;;;;5016148;28;20194;-71
2021/12/29 06:51:40;;;;;;;12.53;7.17;;;;;;;;;;5015819;28;20182;-69
2021/12/29 06:54:05;;;;;;;15.13;6.97;;;;;;;;;;5014953;28;20205;-71
2021/12/29 06:56:30;;;;;;;19.80;6.70;;;;;;;;;;5012997;28;20232;-71
2021/12/29 06:58:56;;;;;;;16.50;7.03;;;;;;;;;;5013899;28;20224;-72
2021/12/29 07:01:21;;;;;;;12.10;6.23;;;;;;;;;;5012291;28;20584;-73
2021/12/29 07:03:46;;;;;;;11.53;6.67;;;;;;;;;;5014272;28;20182;-70
2021/12/29 07:06:11;;;;;;;11.23;6.27;;;;;;;;;;4998938;28;20305;-71
2021/12/29 07:08:37;;;;;;;17.30;5.57;;;;;;;;;;5015735;28;20201;-71
2021/12/29 07:11:03;;;;;;;13.60;6.10;;;;;;;;;;5012650;28;20214;-71
2021/12/29 07:13:28;;;;;;;14.57;6.33;;;;;;;;;;5013620;28;20677;-70
2021/12/29 07:15:53;;;;;;;12.13;6.27;;;;;;;;;;5016750;28;20332;-71
2021/12/29 07:18:18;;;;;;;11.53;7.33;;;;;;;;;;5016073;28;20561;-71
2021/12/29 07:20:44;;;;;;;19.00;9.50;;;;;;;;;;4994828;28;20232;-70
2021/12/29 07:23:09;;;;;;;18.63;6.70;;;;;;;;;;4996653;28;20182;-70
2021/12/29 07:25:46;;;;;;;15.97;7.70;;;;;;;;;;5013393;28;20186;-70
2021/12/29 07:28:30;;;;;;;12.47;6.63;;;;;;;;;;5014104;28;20194;-70
2021/12/29 07:30:56;;;;;;;18.27;6.50;;;;;;;;;;5011019;28;20667;-71
2021/12/29 07:33:22;;;;;;;10.87;6.43;;;;;;;;;;4997172;28;21201;-71
2021/12/29 07:35:47;;;;;;;15.07;7.30;;;;;;;;;;4997431;28;20562;-71
2021/12/29 07:38:12;;;;;;;12.80;6.83;;;;;;;;;;5015978;28;20765;-71
2021/12/29 07:40:37;;;;;;;11.60;7.03;;;;;;;;;;5011819;28;20206;-71
2021/12/29 07:43:03;;;;;;;10.63;7.10;;;;;;;;;;4994687;28;20181;-70
2021/12/29 07:45:28;;;;;;;16.53;7.63;;;;;;;;;;5012189;28;20197;-71
2021/12/29 07:47:54;;;;;;;13.80;7.80;;;;;;;;;;5014258;28;20276;-71
2021/12/29 07:50:20;;;;;;;16.53;8.13;;;;;;;;;;5014390;28;20186;-70
2021/12/29 07:52:48;;;;;;;17.07;7.97;;;;;;;;;;5015518;28;20278;-71
2021/12/29 07:55:13;;;;;;;12.33;7.77;;;;;;;;;;5013442;28;20610;-70
2021/12/29 07:57:38;;;;;;;13.63;7.80;;;;;;;;;;5011730;28;20268;-70
2021/12/29 08:00:04;;;;;;;12.27;7.13;;;;;;;;;;5012772;28;21552;-70
2021/12/29 08:02:29;;;;;;;10.30;7.43;;;;;;;;;;5013687;28;20198;-70
2021/12/29 08:04:54;;;;;;;11.60;6.70;;;;;;;;;;5016100;28;20533;-70
2021/12/29 08:07:20;;;;;;;14.63;7.47;;;;;;;;;;5013534;28;20184;-70
2021/12/29 08:09:46;;;;;;;14.57;6.80;;;;;;;;;;5016093;28;20994;-71
2021/12/29 08:12:11;;;;;;;11.57;6.77;;;;;;;;;;5012573;28;20179;-71
2021/12/29 08:14:36;;;;;;;12.00;6.80;;;;;;;;;;5017568;28;20669;-70
2021/12/29 08:17:02;;;;;;;15.10;7.70;;;;;;;;;;5014437;28;20194;-71
2021/12/29 08:19:27;;;;;;;16.47;7.50;;;;;;;;;;5016479;28;20691;-70
2021/12/29 08:21:53;;;;;;;14.97;7.80;;;;;;;;;;5015569;28;20212;-70
2021/12/29 08:24:18;;;;;;;10.47;6.97;;;;;;;;;;5009542;28;20178;-71
2021/12/29 08:26:43;;;;;;;16.00;8.67;;;;;;;;;;4998776;28;21059;-71
2021/12/29 08:29:08;;;;;;;16.23;8.70;;;;;;;;;;5013806;28;20205;-71
2021/12/29 08:31:33;;;;;;;15.10;7.43;;;;;;;;;;5014752;28;20190;-72
2021/12/29 08:33:59;;;;;;;14.20;7.70;;;;;;;;;;5014279;28;20191;-71
2021/12/29 08:36:24;;;;;;;16.13;8.40;;;;;;;;;;5029287;28;20214;-69
2021/12/29 08:38:49;;;;;;;15.63;7.77;;;;;;;;;;5024661;28;20203;-70
2021/12/29 08:41:15;;;;;;;16.83;9.17;;;;;;;;;;5031411;28;20242;-69
2021/12/29 08:43:40;;;;;;;13.83;8.00;;;;;;;;;;5033826;28;20193;-69
2021/12/29 08:46:06;;;;;;;16.47;9.10;;;;;;;;;;5035934;28;20167;-69
2021/12/29 08:48:31;;;;;;;17.57;9.07;;;;;;;;;;5038924;28;20267;-72
2021/12/29 08:51:00;;;;;;;17.00;8.87;;;;;;;;;;5023677;28;20269;-70
2021/12/29 08:53:26;;;;;;;15.83;9.93;;;;;;;;;;5018577;28;20239;-70
2021/12/29 08:55:55;;;;;;;19.10;9.00;;;;;;;;;;5018868;28;20201;-70
2021/12/29 08:58:22;;;;;;;15.80;8.57;;;;;;;;;;5002266;28;20213;-71
2021/12/29 09:00:47;;;;;;;13.80;8.87;;;;;;;;;;5002868;28;20296;-70
2021/12/29 09:03:12;;;;;;;17.17;8.90;;;;;;;;;;5018874;28;20259;-71
2021/12/29 09:05:38;;;;;;;13.77;8.60;;;;;;;;;;5019849;28;20183;-70
2021/12/29 09:08:03;;;;;;;16.73;9.10;;;;;;;;;;5019285;28;20193;-70
2021/12/29 09:10:28;;;;;;;11.13;7.63;;;;;;;;;;5017186;28;21275;-71
2021/12/29 09:12:54;;;;;;;14.10;8.57;;;;;;;;;;5016427;28;20194;-71
2021/12/29 09:15:20;;;;;;;12.47;7.47;;;;;;;;;;5018427;28;20281;-71
2021/12/29 09:17:45;;;;;;;13.07;7.47;;;;;;;;;;5019870;28;20198;-71
2021/12/29 09:20:15;;;;;;;15.60;8.80;;;;;;;;;;5012992;28;20919;-70
2021/12/29 09:22:41;;;;;;;12.17;7.80;;;;;;;;;;5017457;28;20311;-69
2021/12/29 09:25:07;;;;;;;11.90;8.30;;;;;;;;;;5016711;28;20247;-71
2021/12/29 09:27:32;;;;;;;14.67;8.60;;;;;;;;;;4999317;28;20514;-71
2021/12/29 09:29:58;;;;;;;18.27;7.57;;;;;;;;;;5018727;28;20177;-69
2021/12/29 09:32:23;;;;;;;13.77;7.97;;;;;;;;;;5018053;28;20179;-71
2021/12/29 09:34:49;;;;;;;14.20;8.33;;;;;;;;;;5018148;28;20739;-71
2021/12/29 09:37:14;;;;;;;12.07;7.43;;;;;;;;;;5019833;28;20214;-71
2021/12/29 09:39:39;;;;;;;12.77;8.77;;;;;;;;;;5016451;28;20197;-68
2021/12/29 09:42:05;;;;;;;16.67;7.63;;;;;;;;;;5016151;28;20221;-69
2021/12/29 09:44:31;;;;;;;13.37;7.30;;;;;;;;;;5017708;28;20178;-70
2021/12/29 09:46:56;;;;;;;12.90;6.97;;;;;;;;;;5020914;28;20392;-71
2021/12/29 09:49:22;;;;;;;15.80;7.27;;;;;;;;;;5018236;28;20203;-71
2021/12/29 09:51:47;;;;;;;12.07;7.03;;;;;;;;;;5016342;28;20872;-71
2021/12/29 09:54:13;;;;;;;13.03;7.20;;;;;;;;;;5013749;28;20264;-70
2021/12/29 09:56:38;;;;;;;9.53;7.10;;;;;;;;;;5017894;28;20177;-70
2021/12/29 09:59:03;;;;;;;9.70;7.20;;;;;;;;;;5013368;28;20922;-71
2021/12/29 10:01:28;;;;;;;13.43;7.23;;;;;;;;;;5013767;28;20256;-70
2021/12/29 10:03:53;;;;;;;10.87;7.13;;;;;;;;;;5020433;28;20194;-71
2021/12/29 10:06:19;;;;;;;10.40;6.63;;;;;;;;;;5029162;28;20228;-69
2021/12/29 10:08:47;;;;;;;8.07;7.17;;;;;;;;;;5034947;28;20276;-71
2021/12/29 10:11:18;;;;;;;11.40;7.27;;;;;;;;;;5035202;28;20194;-69
2021/12/29 10:13:45;;;;;;;14.03;7.10;;;;;;;;;;5028863;28;20651;-69
2021/12/29 10:16:12;;;;;;;14.73;8.27;;;;;;;;;;5032600;28;20190;-69
2021/12/29 10:18:40;;;;;;;10.93;7.13;;;;;;;;;;5032971;28;20201;-68
2021/12/29 10:21:16;;;;;;;10.77;7.60;;;;;;;;;;5037237;28;20198;-70
2021/12/29 10:23:45;;;;;;;8.57;7.30;;;;;;;;;;5017523;28;20186;-71
2021/12/29 10:26:18;;;;;;;13.67;7.80;;;;;;;;;;5040850;28;20186;-71
2021/12/29 10:28:47;;;;;;;12.07;6.80;;;;;;;;;;5032787;28;20202;-70
2021/12/29 10:31:17;;;;;;;12.33;6.30;;;;;;;;;;5031444;28;20245;-71
2021/12/29 10:33:45;;;;;;;11.10;6.97;;;;;;;;;;5022247;28;20194;-71
2021/12/29 10:36:24;;;;;;;11.07;6.53;;;;;;;;;;5009536;28;20206;-69
2021/12/29 10:39:04;;;;;;;16.17;8.27;;;;;;;;;;5017407;28;20264;-71
2021/12/29 10:41:30;;;;;;;14.60;7.50;;;;;;;;;;5015759;28;20214;-70
2021/12/29 10:43:57;;;;;;;16.60;8.77;;;;;;;;;;5016661;28;21760;-71
2021/12/29 10:46:23;;;;;;;12.90;7.70;;;;;;;;;;5016554;28;20209;-68
2021/12/29 10:48:49;;;;;;;12.53;8.63;;;;;;;;;;5018006;28;20995;-69
2021/12/29 10:51:15;;;;;;;19.17;11.23;;;;;;;;;;5016795;28;20264;-69
2021/12/29 10:53:40;;;;;;;17.97;11.70;;;;;;;;;;5000010;28;20800;-69
2021/12/29 10:56:06;;;;;;;10.13;8.20;;;;;;;;;;5016070;28;20401;-69
2021/12/29 10:58:33;;;;;;;12.57;9.10;;;;;;;;;;5016201;28;20213;-70
2021/12/29 11:01:01;;;;;;;11.30;7.93;;;;;;;;;;5012695;28;20285;-70
2021/12/29 11:03:27;;;;;;;9.80;7.57;;;;;;;;;;5022055;28;20235;-71
2021/12/29 11:05:58;;;;;;;11.17;7.37;;;;;;;;;;5018438;28;20178;-71
2021/12/29 11:08:45;;;;;;;11.67;7.53;;;;;;;;;;5014463;28;20280;-71
2021/12/29 11:11:10;;;;;;;11.90;7.43;;;;;;;;;;5011928;28;20211;-71
2021/12/29 11:13:35;;;;;;;16.80;11.23;;;;;;;;;;5014798;28;20182;-71
2021/12/29 11:16:01;;;;;;;12.77;9.10;;;;;;;;;;5016456;28;20217;-71
2021/12/29 11:18:39;;;;;;;18.50;13.37;;;;;;;;;;5000088;28;20304;-69
2021/12/29 11:21:04;;;;;;;17.10;11.00;;;;;;;;;;5012949;28;21439;-71
2021/12/29 11:23:29;;;;;;;19.00;12.53;;;;;;;;;;5014275;28;20585;-70
2021/12/29 11:25:54;;;;;;;13.37;8.87;;;;;;;;;;5011101;28;20617;-71
2021/12/29 11:28:24;;;;;;;13.03;8.40;;;;;;;;;;5015768;28;20551;-69
2021/12/29 11:30:50;;;;;;;11.90;9.73;;;;;;;;;;5015767;28;20551;-71
2021/12/29 11:33:15;;;;;;;21.83;17.03;;;;;;;;;;5016808;28;20186;-71
2021/12/29 11:35:41;;;;;;;13.40;10.60;;;;;;;;;;5001389;28;20269;-71
2021/12/29 11:38:07;;;;;;;10.77;8.33;;;;;;;;;;5017353;28;20635;-71
2021/12/29 11:40:33;;;;;;;11.53;7.23;;;;;;;;;;5013417;28;20259;-70
2021/12/29 11:42:59;;;;;;;11.90;8.07;;;;;;;;;;5013595;28;20181;-71
2021/12/29 11:45:24;;;;;;;13.13;9.80;;;;;;;;;;5014147;28;20693;-70
2021/12/29 11:47:50;;;;;;;10.50;7.80;;;;;;;;;;5014380;28;20199;-71
2021/12/29 11:50:24;;;;;;;9.03;8.13;;;;;;;;;;5014813;28;20174;-71
2021/12/29 11:52:59;;;;;;;11.77;8.33;;;;;;;;;;4991073;28;20550;-70
2021/12/29 11:55:29;;;;;;;11.33;8.13;;;;;;;;;;4999586;28;20211;-71
2021/12/29 11:57:54;;;;;;;11.37;7.63;;;;;;;;;;5002547;28;20580;-74
2021/12/29 12:00:21;;;;;;;10.70;7.87;;;;;;;;;;5033938;22;20221;-69
2021/12/29 12:02:47;;;;;;;12.03;8.03;;;;;;;;;;5023049;28;20186;-70
2021/12/29 12:05:14;;;;;;;12.80;7.80;;;;;;;;;;5026471;28;20181;-70
2021/12/29 12:07:39;;;;;;;10.67;8.77;;;;;;;;;;5018821;28;21185;-70
2021/12/29 12:10:09;;;;;;;11.90;7.83;;;;;;;;;;4998479;28;20195;-69
2021/12/29 12:12:35;;;;;;;10.30;8.13;;;;;;;;;;4996280;28;20682;-70
2021/12/29 12:15:01;;;;;;;9.80;7.10;;;;;;;;;;4996537;28;20261;-69
2021/12/29 12:17:28;;;;;;;11.43;8.10;;;;;;;;;;4997677;28;20213;-70
2021/12/29 12:20:02;;;;;;;10.93;8.10;;;;;;;;;;4999725;28;20210;-70
2021/12/29 12:22:28;;;;;;;11.40;7.93;;;;;;;;;;5000903;28;20182;-68
2021/12/29 12:24:56;;;;;;;12.20;8.07;;;;;;;;;;4992225;28;20196;-68
2021/12/29 12:27:32;;;;;;;12.40;7.33;;;;;;;;;;4999504;28;20190;-69
2021/12/29 12:30:10;;;;;;;10.47;7.03;;;;;;;;;;4995779;28;20643;-69
2021/12/29 12:32:54;;;;;;;14.67;7.23;;;;;;;;;;4998576;28;20190;-69
2021/12/29 12:35:30;;;;;;;8.23;5.70;;;;;;;;;;4995293;28;20191;-70
2021/12/29 12:37:56;;;;;;;13.10;7.73;;;;;;;;;;4992136;28;20187;-69
2021/12/29 12:40:23;;;;;;;11.53;6.87;;;;;;;;;;5001932;28;20221;-70
2021/12/29 12:43:21;;;;;;;8.50;6.33;;;;;;;;;;5001318;28;20366;-70
2021/12/29 12:45:47;;;;;;;10.87;6.30;;;;;;;;;;4965734;28;20564;-69
2021/12/29 12:48:14;;;;;;;12.40;6.73;;;;;;;;;;5002135;28;20206;-69
2021/12/29 12:50:41;;;;;;;8.60;5.30;;;;;;;;;;5000843;28;20182;-69
2021/12/29 12:53:07;;;;;;;14.73;6.67;;;;;;;;;;4988121;28;20882;-69
2021/12/29 12:55:41;;;;;;;9.77;6.00;;;;;;;;;;4994114;28;20186;-71
2021/12/29 12:58:10;;;;;;;10.10;6.30;;;;;;;;;;4998432;28;20668;-70
2021/12/29 13:00:40;;;;;;;9.50;5.87;;;;;;;;;;4982649;28;22009;-69
2021/12/29 13:03:05;;;;;;;13.77;6.03;;;;;;;;;;4998101;28;20302;-68
2021/12/29 13:05:33;;;;;;;17.03;7.83;;;;;;;;;;5000457;28;20182;-68
2021/12/29 13:08:06;;;;;;;10.03;6.73;;;;;;;;;;4981733;28;20920;-70
2021/12/29 13:10:33;;;;;;;13.03;6.00;;;;;;;;;;4996420;28;20201;-70
2021/12/29 13:13:09;;;;;;;12.73;6.50;;;;;;;;;;5007947;28;20180;-71
2021/12/29 13:15:35;;;;;;;11.00;6.83;;;;;;;;;;4990700;28;20428;-69
2021/12/29 13:18:00;;;;;;;12.13;6.13;;;;;;;;;;5000182;28;20567;-69
2021/12/29 13:20:26;;;;;;;10.43;6.23;;;;;;;;;;5001259;28;20276;-69
2021/12/29 13:22:51;;;;;;;9.43;6.03;;;;;;;;;;4999519;28;20191;-69
2021/12/29 13:25:18;;;;;;;10.23;6.87;;;;;;;;;;4999613;28;20256;-70
2021/12/29 13:27:52;;;;;;;11.57;7.60;;;;;;;;;;4999497;28;21538;-70
2021/12/29 13:30:17;;;;;;;15.60;6.70;;;;;;;;;;4987900;28;20209;-69
2021/12/29 13:32:52;;;;;;;13.87;6.93;;;;;;;;;;4999775;28;20183;-68
2021/12/29 13:35:22;;;;;;;13.43;7.37;;;;;;;;;;4999566;28;20192;-68
2021/12/29 13:37:47;;;;;;;13.20;6.83;;;;;;;;;;4999123;28;20559;-69
2021/12/29 13:40:15;;;;;;;13.80;7.80;;;;;;;;;;5000096;28;20195;-68
2021/12/29 13:42:41;;;;;;;13.90;7.10;;;;;;;;;;4997314;28;20175;-69
2021/12/29 13:45:07;;;;;;;17.90;7.60;;;;;;;;;;4999704;28;20328;-69
2021/12/29 13:47:32;;;;;;;11.47;7.00;;;;;;;;;;4994510;28;20720;-69
2021/12/29 13:50:09;;;;;;;11.93;7.47;;;;;;;;;;4995928;28;20218;-69
2021/12/29 13:52:34;;;;;;;10.60;6.60;;;;;;;;;;4984009;28;20321;-69
2021/12/29 13:54:59;;;;;;;13.57;7.10;;;;;;;;;;4992049;28;20566;-68
2021/12/29 13:57:25;;;;;;;15.80;7.57;;;;;;;;;;4998208;28;20199;-69
2021/12/29 13:59:50;;;;;;;13.53;7.27;;;;;;;;;;5000206;28;20221;-69
2021/12/29 14:02:15;;;;;;;12.63;7.47;;;;;;;;;;4999092;28;20583;-68
2021/12/29 14:04:43;;;;;;;16.33;9.43;;;;;;;;;;5003116;28;20190;-69
2021/12/29 14:07:09;;;;;;;14.03;8.23;;;;;;;;;;5000338;28;20598;-68
2021/12/29 14:09:36;;;;;;;15.27;8.43;;;;;;;;;;4997564;28;20700;-71
2021/12/29 14:12:08;;;;;;;14.47;8.33;;;;;;;;;;4997422;28;20299;-69
2021/12/29 14:14:33;;;;;;;12.30;8.93;;;;;;;;;;5000231;28;20190;-69
2021/12/29 14:16:58;;;;;;;15.23;9.07;;;;;;;;;;4999551;28;20196;-68
2021/12/29 14:19:27;;;;;;;17.53;9.77;;;;;;;;;;4999756;28;20202;-68
2021/12/29 14:21:54;;;;;;;17.87;10.33;;;;;;;;;;4997527;28;20197;-69
2021/12/29 14:24:21;;;;;;;13.10;9.47;;;;;;;;;;5006579;28;20175;-69
2021/12/29 14:26:54;;;;;;;14.93;9.40;;;;;;;;;;5002564;28;20175;-69
2021/12/29 14:29:21;;;;;;;14.77;8.37;;;;;;;;;;4996086;28;20294;-69
2021/12/29 14:31:50;;;;;;;14.23;9.60;;;;;;;;;;4993623;28;20321;-69
2021/12/29 14:34:15;;;;;;;12.87;8.07;;;;;;;;;;4993346;28;20222;-70